sensor_id;sensor_type;location;lat;lon;timestamp;P1;durP1;ratioP1;P2;durP2;ratioP2
13230;SDS011;6681;53.254;10.398;2023-03-03T00:01:22;21.13;;;15.40;;
13230;SDS011;6681;53.254;10.398;2023-03-03T00:03:50;23.70;;;15.77;;
13230;SDS011;6681;53.254;10.398;2023-03-03T00:06:16;30.77;;;19.23;;
13230;SDS011;6681;53.254;10.398;2023-03-03T00:08:42;30.87;;;16.03;;
13230;SDS011;6681;53.254;10.398;2023-03-03T00:11:08;24.80;;;15.20;;
13230;SDS011;6681;53.254;10.398;2023-03-03T00:13:51;25.63;;;15.70;;
13230;SDS011;6681;53.254;10.398;2023-03-03T00:16:30;23.17;;;14.57;;
13230;SDS011;6681;53.254;10.398;2023-03-03T00:19:00;25.73;;;16.33;;
13230;SDS011;6681;53.254;10.398;2023-03-03T00:21:27;28.73;;;16.57;;
13230;SDS011;6681;53.254;10.398;2023-03-03T00:24:17;25.30;;;16.50;;
13230;SDS011;6681;53.254;10.398;2023-03-03T00:26:50;26.87;;;17.03;;
13230;SDS011;6681;53.254;10.398;2023-03-03T00:29:31;26.53;;;16.10;;
13230;SDS011;6681;53.254;10.398;2023-03-03T00:34:45;23.50;;;15.77;;
13230;SDS011;6681;53.254;10.398;2023-03-03T00:37:22;31.00;;;16.97;;
13230;SDS011;6681;53.254;10.398;2023-03-03T00:40:30;26.73;;;16.13;;
13230;SDS011;6681;53.254;10.398;2023-03-03T00:42:56;24.27;;;16.93;;
13230;SDS011;6681;53.254;10.398;2023-03-03T00:45:31;27.43;;;17.90;;
13230;SDS011;6681;53.254;10.398;2023-03-03T00:48:22;24.53;;;16.77;;
13230;SDS011;6681;53.254;10.398;2023-03-03T00:50:48;26.27;;;17.87;;
13230;SDS011;6681;53.254;10.398;2023-03-03T00:53:15;31.63;;;18.30;;
13230;SDS011;6681;53.254;10.398;2023-03-03T00:55:42;35.40;;;20.03;;
13230;SDS011;6681;53.254;10.398;2023-03-03T00:58:09;34.17;;;19.87;;
13230;SDS011;6681;53.254;10.398;2023-03-03T01:00:35;32.27;;;20.00;;
13230;SDS011;6681;53.254;10.398;2023-03-03T01:03:06;33.90;;;20.37;;
13230;SDS011;6681;53.254;10.398;2023-03-03T01:05:33;37.90;;;21.80;;
13230;SDS011;6681;53.254;10.398;2023-03-03T01:08:00;45.13;;;23.97;;
13230;SDS011;6681;53.254;10.398;2023-03-03T01:10:27;44.97;;;23.13;;
13230;SDS011;6681;53.254;10.398;2023-03-03T01:12:54;43.70;;;22.97;;
13230;SDS011;6681;53.254;10.398;2023-03-03T01:15:21;40.00;;;24.03;;
13230;SDS011;6681;53.254;10.398;2023-03-03T01:17:47;51.10;;;26.80;;
13230;SDS011;6681;53.254;10.398;2023-03-03T01:20:13;43.97;;;25.93;;
13230;SDS011;6681;53.254;10.398;2023-03-03T01:22:39;53.73;;;27.87;;
13230;SDS011;6681;53.254;10.398;2023-03-03T01:25:05;51.87;;;27.23;;
13230;SDS011;6681;53.254;10.398;2023-03-03T01:27:31;47.20;;;26.80;;
13230;SDS011;6681;53.254;10.398;2023-03-03T01:29:58;47.63;;;27.80;;
13230;SDS011;6681;53.254;10.398;2023-03-03T01:32:24;42.53;;;24.60;;
13230;SDS011;6681;53.254;10.398;2023-03-03T01:34:50;47.83;;;26.07;;
13230;SDS011;6681;53.254;10.398;2023-03-03T01:37:16;39.60;;;23.80;;
13230;SDS011;6681;53.254;10.398;2023-03-03T01:39:41;59.13;;;26.87;;
13230;SDS011;6681;53.254;10.398;2023-03-03T01:42:07;50.20;;;27.07;;
13230;SDS011;6681;53.254;10.398;2023-03-03T01:44:33;50.93;;;27.30;;
13230;SDS011;6681;53.254;10.398;2023-03-03T01:49:51;63.07;;;30.50;;
13230;SDS011;6681;53.254;10.398;2023-03-03T01:52:25;64.13;;;31.73;;
13230;SDS011;6681;53.254;10.398;2023-03-03T01:55:04;68.17;;;32.10;;
13230;SDS011;6681;53.254;10.398;2023-03-03T01:57:36;60.53;;;28.60;;
13230;SDS011;6681;53.254;10.398;2023-03-03T02:00:05;58.87;;;29.80;;
13230;SDS011;6681;53.254;10.398;2023-03-03T02:02:31;62.37;;;31.23;;
13230;SDS011;6681;53.254;10.398;2023-03-03T02:04:58;62.53;;;29.20;;
13230;SDS011;6681;53.254;10.398;2023-03-03T02:07:24;64.53;;;30.03;;
13230;SDS011;6681;53.254;10.398;2023-03-03T02:10:00;61.40;;;30.00;;
13230;SDS011;6681;53.254;10.398;2023-03-03T02:15:26;60.30;;;29.43;;
13230;SDS011;6681;53.254;10.398;2023-03-03T02:17:58;60.83;;;29.30;;
13230;SDS011;6681;53.254;10.398;2023-03-03T02:23:52;54.13;;;25.67;;
13230;SDS011;6681;53.254;10.398;2023-03-03T02:26:14;49.27;;;27.90;;
13230;SDS011;6681;53.254;10.398;2023-03-03T02:28:41;54.83;;;27.63;;
13230;SDS011;6681;53.254;10.398;2023-03-03T02:31:08;64.47;;;28.73;;
13230;SDS011;6681;53.254;10.398;2023-03-03T02:33:40;54.17;;;26.47;;
13230;SDS011;6681;53.254;10.398;2023-03-03T02:36:15;54.70;;;26.80;;
13230;SDS011;6681;53.254;10.398;2023-03-03T02:41:32;58.03;;;26.60;;
13230;SDS011;6681;53.254;10.398;2023-03-03T02:44:04;47.07;;;25.80;;
13230;SDS011;6681;53.254;10.398;2023-03-03T02:46:36;57.17;;;26.00;;
13230;SDS011;6681;53.254;10.398;2023-03-03T02:49:03;57.53;;;27.17;;
13230;SDS011;6681;53.254;10.398;2023-03-03T02:51:30;50.17;;;26.20;;
13230;SDS011;6681;53.254;10.398;2023-03-03T02:53:56;51.77;;;25.67;;
13230;SDS011;6681;53.254;10.398;2023-03-03T02:56:22;56.87;;;28.00;;
13230;SDS011;6681;53.254;10.398;2023-03-03T02:58:48;44.97;;;25.03;;
13230;SDS011;6681;53.254;10.398;2023-03-03T03:01:13;52.03;;;28.07;;
13230;SDS011;6681;53.254;10.398;2023-03-03T03:03:39;51.97;;;26.50;;
13230;SDS011;6681;53.254;10.398;2023-03-03T03:06:05;57.37;;;27.30;;
13230;SDS011;6681;53.254;10.398;2023-03-03T03:08:31;54.87;;;26.43;;
13230;SDS011;6681;53.254;10.398;2023-03-03T03:10:57;49.53;;;26.90;;
13230;SDS011;6681;53.254;10.398;2023-03-03T03:13:23;50.37;;;27.33;;
13230;SDS011;6681;53.254;10.398;2023-03-03T03:15:49;56.87;;;28.07;;
13230;SDS011;6681;53.254;10.398;2023-03-03T03:18:19;56.37;;;27.60;;
13230;SDS011;6681;53.254;10.398;2023-03-03T03:20:45;52.63;;;25.80;;
13230;SDS011;6681;53.254;10.398;2023-03-03T03:23:11;49.20;;;24.87;;
13230;SDS011;6681;53.254;10.398;2023-03-03T03:25:36;56.23;;;28.53;;
13230;SDS011;6681;53.254;10.398;2023-03-03T03:28:09;49.73;;;25.83;;
13230;SDS011;6681;53.254;10.398;2023-03-03T03:30:36;55.00;;;26.83;;
13230;SDS011;6681;53.254;10.398;2023-03-03T03:33:03;53.30;;;26.17;;
13230;SDS011;6681;53.254;10.398;2023-03-03T03:35:28;52.40;;;26.73;;
13230;SDS011;6681;53.254;10.398;2023-03-03T03:37:54;54.30;;;27.77;;
13230;SDS011;6681;53.254;10.398;2023-03-03T03:40:20;50.37;;;25.20;;
13230;SDS011;6681;53.254;10.398;2023-03-03T03:42:45;51.67;;;26.13;;
13230;SDS011;6681;53.254;10.398;2023-03-03T03:45:11;47.47;;;25.70;;
13230;SDS011;6681;53.254;10.398;2023-03-03T03:47:40;55.83;;;25.53;;
13230;SDS011;6681;53.254;10.398;2023-03-03T03:50:07;49.10;;;26.87;;
13230;SDS011;6681;53.254;10.398;2023-03-03T03:52:33;55.57;;;27.13;;
13230;SDS011;6681;53.254;10.398;2023-03-03T03:54:59;46.43;;;25.13;;
13230;SDS011;6681;53.254;10.398;2023-03-03T03:57:25;50.63;;;26.17;;
13230;SDS011;6681;53.254;10.398;2023-03-03T03:59:50;50.80;;;29.00;;
13230;SDS011;6681;53.254;10.398;2023-03-03T04:02:16;62.77;;;29.07;;
13230;SDS011;6681;53.254;10.398;2023-03-03T04:04:42;59.20;;;27.53;;
13230;SDS011;6681;53.254;10.398;2023-03-03T04:07:08;55.73;;;28.13;;
13230;SDS011;6681;53.254;10.398;2023-03-03T04:09:33;58.33;;;29.33;;
13230;SDS011;6681;53.254;10.398;2023-03-03T04:11:59;57.33;;;28.47;;
13230;SDS011;6681;53.254;10.398;2023-03-03T04:14:25;57.33;;;26.53;;
13230;SDS011;6681;53.254;10.398;2023-03-03T04:16:50;57.03;;;26.83;;
13230;SDS011;6681;53.254;10.398;2023-03-03T04:19:16;56.13;;;26.57;;
13230;SDS011;6681;53.254;10.398;2023-03-03T04:21:42;56.10;;;26.37;;
13230;SDS011;6681;53.254;10.398;2023-03-03T04:24:07;58.67;;;28.40;;
13230;SDS011;6681;53.254;10.398;2023-03-03T04:26:33;55.27;;;27.37;;
13230;SDS011;6681;53.254;10.398;2023-03-03T04:28:59;54.27;;;28.80;;
13230;SDS011;6681;53.254;10.398;2023-03-03T04:31:25;63.10;;;27.47;;
13230;SDS011;6681;53.254;10.398;2023-03-03T04:33:51;51.70;;;26.33;;
13230;SDS011;6681;53.254;10.398;2023-03-03T04:36:18;48.57;;;25.40;;
13230;SDS011;6681;53.254;10.398;2023-03-03T04:38:44;46.83;;;27.73;;
13230;SDS011;6681;53.254;10.398;2023-03-03T04:41:10;47.77;;;25.10;;
13230;SDS011;6681;53.254;10.398;2023-03-03T04:43:35;49.53;;;24.13;;
13230;SDS011;6681;53.254;10.398;2023-03-03T04:46:01;43.70;;;24.43;;
13230;SDS011;6681;53.254;10.398;2023-03-03T04:48:27;53.17;;;25.70;;
13230;SDS011;6681;53.254;10.398;2023-03-03T04:50:53;55.20;;;25.63;;
13230;SDS011;6681;53.254;10.398;2023-03-03T04:53:19;51.27;;;26.37;;
13230;SDS011;6681;53.254;10.398;2023-03-03T04:55:44;54.60;;;26.87;;
13230;SDS011;6681;53.254;10.398;2023-03-03T04:58:10;51.20;;;26.70;;
13230;SDS011;6681;53.254;10.398;2023-03-03T05:00:36;50.47;;;25.90;;
13230;SDS011;6681;53.254;10.398;2023-03-03T05:03:02;55.93;;;25.73;;
13230;SDS011;6681;53.254;10.398;2023-03-03T05:05:28;54.63;;;27.20;;
13230;SDS011;6681;53.254;10.398;2023-03-03T05:07:54;58.20;;;25.77;;
13230;SDS011;6681;53.254;10.398;2023-03-03T05:10:19;45.40;;;21.90;;
13230;SDS011;6681;53.254;10.398;2023-03-03T05:12:45;54.97;;;27.17;;
13230;SDS011;6681;53.254;10.398;2023-03-03T05:15:11;42.27;;;22.87;;
13230;SDS011;6681;53.254;10.398;2023-03-03T05:17:37;51.27;;;25.83;;
13230;SDS011;6681;53.254;10.398;2023-03-03T05:20:03;48.83;;;25.37;;
13230;SDS011;6681;53.254;10.398;2023-03-03T05:22:35;49.10;;;23.30;;
13230;SDS011;6681;53.254;10.398;2023-03-03T05:25:01;47.20;;;24.00;;
13230;SDS011;6681;53.254;10.398;2023-03-03T05:27:26;44.60;;;22.27;;
13230;SDS011;6681;53.254;10.398;2023-03-03T05:29:52;50.80;;;25.33;;
13230;SDS011;6681;53.254;10.398;2023-03-03T05:32:18;47.53;;;23.40;;
13230;SDS011;6681;53.254;10.398;2023-03-03T05:34:43;46.93;;;24.10;;
13230;SDS011;6681;53.254;10.398;2023-03-03T05:37:09;46.87;;;24.87;;
13230;SDS011;6681;53.254;10.398;2023-03-03T05:39:39;50.07;;;24.67;;
13230;SDS011;6681;53.254;10.398;2023-03-03T05:42:05;46.87;;;24.23;;
13230;SDS011;6681;53.254;10.398;2023-03-03T05:44:31;40.57;;;21.97;;
13230;SDS011;6681;53.254;10.398;2023-03-03T05:46:56;47.73;;;23.20;;
13230;SDS011;6681;53.254;10.398;2023-03-03T05:49:23;47.80;;;23.27;;
13230;SDS011;6681;53.254;10.398;2023-03-03T05:51:49;39.53;;;22.03;;
13230;SDS011;6681;53.254;10.398;2023-03-03T05:54:17;40.27;;;22.13;;
13230;SDS011;6681;53.254;10.398;2023-03-03T05:56:45;47.90;;;22.23;;
13230;SDS011;6681;53.254;10.398;2023-03-03T05:59:14;38.30;;;22.20;;
13230;SDS011;6681;53.254;10.398;2023-03-03T06:01:40;46.10;;;23.67;;
13230;SDS011;6681;53.254;10.398;2023-03-03T06:04:05;38.10;;;23.10;;
13230;SDS011;6681;53.254;10.398;2023-03-03T06:06:31;40.43;;;22.70;;
13230;SDS011;6681;53.254;10.398;2023-03-03T06:08:56;40.53;;;23.23;;
13230;SDS011;6681;53.254;10.398;2023-03-03T06:11:22;41.70;;;23.47;;
13230;SDS011;6681;53.254;10.398;2023-03-03T06:13:48;45.27;;;21.47;;
13230;SDS011;6681;53.254;10.398;2023-03-03T06:16:13;42.50;;;22.13;;
13230;SDS011;6681;53.254;10.398;2023-03-03T06:18:39;43.33;;;23.07;;
13230;SDS011;6681;53.254;10.398;2023-03-03T06:21:05;39.27;;;22.07;;
13230;SDS011;6681;53.254;10.398;2023-03-03T06:23:30;35.73;;;21.50;;
13230;SDS011;6681;53.254;10.398;2023-03-03T06:25:56;44.00;;;20.97;;
13230;SDS011;6681;53.254;10.398;2023-03-03T06:28:22;46.80;;;23.10;;
13230;SDS011;6681;53.254;10.398;2023-03-03T06:30:51;41.43;;;23.00;;
13230;SDS011;6681;53.254;10.398;2023-03-03T06:33:18;48.10;;;24.70;;
13230;SDS011;6681;53.254;10.398;2023-03-03T06:35:47;41.40;;;22.93;;
13230;SDS011;6681;53.254;10.398;2023-03-03T06:38:14;43.53;;;25.80;;
13230;SDS011;6681;53.254;10.398;2023-03-03T06:40:40;47.53;;;25.47;;
13230;SDS011;6681;53.254;10.398;2023-03-03T06:43:05;46.17;;;23.17;;
13230;SDS011;6681;53.254;10.398;2023-03-03T06:45:31;49.97;;;23.63;;
13230;SDS011;6681;53.254;10.398;2023-03-03T06:47:56;38.67;;;23.07;;
13230;SDS011;6681;53.254;10.398;2023-03-03T06:50:22;40.53;;;21.87;;
13230;SDS011;6681;53.254;10.398;2023-03-03T06:52:47;43.20;;;22.83;;
13230;SDS011;6681;53.254;10.398;2023-03-03T06:55:17;49.23;;;25.37;;
13230;SDS011;6681;53.254;10.398;2023-03-03T06:57:47;39.33;;;21.77;;
13230;SDS011;6681;53.254;10.398;2023-03-03T07:00:23;41.87;;;22.30;;
13230;SDS011;6681;53.254;10.398;2023-03-03T07:02:56;36.47;;;19.83;;
13230;SDS011;6681;53.254;10.398;2023-03-03T07:05:25;47.57;;;23.10;;
13230;SDS011;6681;53.254;10.398;2023-03-03T07:07:53;38.73;;;21.90;;
13230;SDS011;6681;53.254;10.398;2023-03-03T07:10:29;39.00;;;22.00;;
13230;SDS011;6681;53.254;10.398;2023-03-03T07:13:01;41.07;;;20.87;;
13230;SDS011;6681;53.254;10.398;2023-03-03T07:15:42;37.23;;;21.73;;
13230;SDS011;6681;53.254;10.398;2023-03-03T07:21:11;41.97;;;22.00;;
13230;SDS011;6681;53.254;10.398;2023-03-03T07:23:40;39.53;;;21.93;;
13230;SDS011;6681;53.254;10.398;2023-03-03T07:26:19;33.03;;;19.57;;
13230;SDS011;6681;53.254;10.398;2023-03-03T07:28:54;41.70;;;21.47;;
13230;SDS011;6681;53.254;10.398;2023-03-03T07:34:00;37.93;;;22.00;;
13230;SDS011;6681;53.254;10.398;2023-03-03T07:36:38;40.03;;;22.43;;
13230;SDS011;6681;53.254;10.398;2023-03-03T07:41:58;38.13;;;21.67;;
13230;SDS011;6681;53.254;10.398;2023-03-03T07:44:44;37.33;;;22.40;;
13230;SDS011;6681;53.254;10.398;2023-03-03T07:47:26;38.00;;;22.27;;
13230;SDS011;6681;53.254;10.398;2023-03-03T07:50:00;39.50;;;20.67;;
13230;SDS011;6681;53.254;10.398;2023-03-03T07:52:41;39.73;;;20.73;;
13230;SDS011;6681;53.254;10.398;2023-03-03T07:55:22;40.13;;;19.77;;
13230;SDS011;6681;53.254;10.398;2023-03-03T07:58:36;38.40;;;21.57;;
13230;SDS011;6681;53.254;10.398;2023-03-03T08:03:59;37.20;;;20.30;;
13230;SDS011;6681;53.254;10.398;2023-03-03T08:09:01;36.00;;;18.83;;
13230;SDS011;6681;53.254;10.398;2023-03-03T08:11:50;30.53;;;18.83;;
13230;SDS011;6681;53.254;10.398;2023-03-03T08:14:30;43.57;;;25.13;;
13230;SDS011;6681;53.254;10.398;2023-03-03T08:17:00;38.60;;;21.93;;
13230;SDS011;6681;53.254;10.398;2023-03-03T08:19:31;33.73;;;19.60;;
13230;SDS011;6681;53.254;10.398;2023-03-03T08:21:59;31.93;;;17.90;;
13230;SDS011;6681;53.254;10.398;2023-03-03T08:24:36;33.37;;;18.40;;
13230;SDS011;6681;53.254;10.398;2023-03-03T08:27:01;33.03;;;18.63;;
13230;SDS011;6681;53.254;10.398;2023-03-03T08:29:27;32.70;;;17.37;;
13230;SDS011;6681;53.254;10.398;2023-03-03T08:31:52;29.00;;;19.17;;
13230;SDS011;6681;53.254;10.398;2023-03-03T08:34:18;25.23;;;17.47;;
13230;SDS011;6681;53.254;10.398;2023-03-03T08:36:44;26.83;;;17.37;;
13230;SDS011;6681;53.254;10.398;2023-03-03T08:39:11;28.40;;;17.30;;
13230;SDS011;6681;53.254;10.398;2023-03-03T08:41:37;32.40;;;17.57;;
13230;SDS011;6681;53.254;10.398;2023-03-03T08:44:04;29.83;;;18.37;;
13230;SDS011;6681;53.254;10.398;2023-03-03T08:46:30;26.13;;;17.13;;
13230;SDS011;6681;53.254;10.398;2023-03-03T08:48:56;36.20;;;19.40;;
13230;SDS011;6681;53.254;10.398;2023-03-03T08:51:21;29.90;;;18.07;;
13230;SDS011;6681;53.254;10.398;2023-03-03T08:53:47;38.07;;;18.53;;
13230;SDS011;6681;53.254;10.398;2023-03-03T08:56:12;30.57;;;18.93;;
13230;SDS011;6681;53.254;10.398;2023-03-03T08:58:38;33.17;;;18.30;;
13230;SDS011;6681;53.254;10.398;2023-03-03T09:01:05;30.37;;;17.33;;
13230;SDS011;6681;53.254;10.398;2023-03-03T09:03:31;30.17;;;17.33;;
13230;SDS011;6681;53.254;10.398;2023-03-03T09:05:57;27.00;;;16.23;;
13230;SDS011;6681;53.254;10.398;2023-03-03T09:08:22;29.63;;;17.07;;
13230;SDS011;6681;53.254;10.398;2023-03-03T09:10:48;27.30;;;18.30;;
13230;SDS011;6681;53.254;10.398;2023-03-03T09:13:14;28.63;;;16.47;;
13230;SDS011;6681;53.254;10.398;2023-03-03T09:15:43;27.97;;;17.17;;
13230;SDS011;6681;53.254;10.398;2023-03-03T09:18:10;30.63;;;15.13;;
13230;SDS011;6681;53.254;10.398;2023-03-03T09:20:46;29.03;;;16.60;;
13230;SDS011;6681;53.254;10.398;2023-03-03T09:23:29;25.93;;;16.43;;
13230;SDS011;6681;53.254;10.398;2023-03-03T09:26:21;27.90;;;15.13;;
13230;SDS011;6681;53.254;10.398;2023-03-03T09:28:51;31.43;;;15.47;;
13230;SDS011;6681;53.254;10.398;2023-03-03T09:31:24;28.57;;;16.50;;
13230;SDS011;6681;53.254;10.398;2023-03-03T09:34:02;25.77;;;15.77;;
13230;SDS011;6681;53.254;10.398;2023-03-03T09:36:40;27.37;;;15.70;;
13230;SDS011;6681;53.254;10.398;2023-03-03T09:39:39;25.20;;;15.13;;
13230;SDS011;6681;53.254;10.398;2023-03-03T09:47:54;28.23;;;16.30;;
13230;SDS011;6681;53.254;10.398;2023-03-03T09:58:47;24.40;;;16.90;;
13230;SDS011;6681;53.254;10.398;2023-03-03T10:07:10;25.47;;;14.63;;
13230;SDS011;6681;53.254;10.398;2023-03-03T10:18:17;25.07;;;14.80;;
13230;SDS011;6681;53.254;10.398;2023-03-03T10:23:56;22.70;;;13.53;;
13230;SDS011;6681;53.254;10.398;2023-03-03T10:26:47;22.33;;;12.93;;
13230;SDS011;6681;53.254;10.398;2023-03-03T10:37:23;22.23;;;13.13;;
13230;SDS011;6681;53.254;10.398;2023-03-03T10:40:07;19.00;;;11.80;;
13230;SDS011;6681;53.254;10.398;2023-03-03T10:42:44;19.30;;;12.43;;
13230;SDS011;6681;53.254;10.398;2023-03-03T11:02:24;15.27;;;11.87;;
13230;SDS011;6681;53.254;10.398;2023-03-03T11:05:31;16.77;;;10.50;;
13230;SDS011;6681;53.254;10.398;2023-03-03T11:08:03;18.50;;;11.37;;
13230;SDS011;6681;53.254;10.398;2023-03-03T11:10:36;15.60;;;11.00;;
13230;SDS011;6681;53.254;10.398;2023-03-03T11:13:46;14.20;;;10.33;;
13230;SDS011;6681;53.254;10.398;2023-03-03T11:18:55;12.67;;;9.50;;
13230;SDS011;6681;53.254;10.398;2023-03-03T11:24:18;15.57;;;9.80;;
13230;SDS011;6681;53.254;10.398;2023-03-03T11:29:46;14.77;;;9.53;;
13230;SDS011;6681;53.254;10.398;2023-03-03T11:32:27;15.37;;;9.57;;
13230;SDS011;6681;53.254;10.398;2023-03-03T11:43:28;13.50;;;8.93;;
13230;SDS011;6681;53.254;10.398;2023-03-03T11:45:59;17.13;;;9.63;;
13230;SDS011;6681;53.254;10.398;2023-03-03T11:48:57;14.70;;;9.70;;
13230;SDS011;6681;53.254;10.398;2023-03-03T11:52:04;13.67;;;9.77;;
13230;SDS011;6681;53.254;10.398;2023-03-03T11:54:55;14.43;;;9.43;;
13230;SDS011;6681;53.254;10.398;2023-03-03T12:00:25;15.10;;;10.10;;
13230;SDS011;6681;53.254;10.398;2023-03-03T12:03:07;20.00;;;11.40;;
13230;SDS011;6681;53.254;10.398;2023-03-03T12:16:42;15.10;;;9.93;;
13230;SDS011;6681;53.254;10.398;2023-03-03T12:40:25;12.23;;;7.97;;
13230;SDS011;6681;53.254;10.398;2023-03-03T12:48:31;8.77;;;6.23;;
13230;SDS011;6681;53.254;10.398;2023-03-03T13:07:15;10.30;;;6.57;;
13230;SDS011;6681;53.254;10.398;2023-03-03T13:20:50;8.00;;;5.63;;
13230;SDS011;6681;53.254;10.398;2023-03-03T13:26:28;10.53;;;6.97;;
13230;SDS011;6681;53.254;10.398;2023-03-03T13:29:14;10.00;;;6.60;;
13230;SDS011;6681;53.254;10.398;2023-03-03T13:31:47;12.80;;;7.60;;
13230;SDS011;6681;53.254;10.398;2023-03-03T13:34:41;13.67;;;6.43;;
13230;SDS011;6681;53.254;10.398;2023-03-03T13:37:23;10.93;;;7.47;;
13230;SDS011;6681;53.254;10.398;2023-03-03T13:45:05;12.13;;;7.10;;
13230;SDS011;6681;53.254;10.398;2023-03-03T13:50:37;8.77;;;5.57;;
13230;SDS011;6681;53.254;10.398;2023-03-03T13:56:05;8.63;;;5.40;;
13230;SDS011;6681;53.254;10.398;2023-03-03T14:02:00;9.43;;;5.70;;
13230;SDS011;6681;53.254;10.398;2023-03-03T14:04:52;10.07;;;6.20;;
13230;SDS011;6681;53.254;10.398;2023-03-03T14:10:32;11.73;;;7.23;;
13230;SDS011;6681;53.254;10.398;2023-03-03T14:13:03;9.50;;;5.67;;
13230;SDS011;6681;53.254;10.398;2023-03-03T14:15:34;9.37;;;6.40;;
13230;SDS011;6681;53.254;10.398;2023-03-03T14:18:20;8.60;;;5.40;;
13230;SDS011;6681;53.254;10.398;2023-03-03T14:20:52;10.40;;;5.63;;
13230;SDS011;6681;53.254;10.398;2023-03-03T14:23:26;12.13;;;6.13;;
13230;SDS011;6681;53.254;10.398;2023-03-03T14:26:12;8.47;;;5.67;;
13230;SDS011;6681;53.254;10.398;2023-03-03T14:28:41;8.73;;;5.03;;
13230;SDS011;6681;53.254;10.398;2023-03-03T14:31:37;8.53;;;5.00;;
13230;SDS011;6681;53.254;10.398;2023-03-03T14:36:37;6.93;;;4.87;;
13230;SDS011;6681;53.254;10.398;2023-03-03T14:41:56;7.43;;;4.27;;
13230;SDS011;6681;53.254;10.398;2023-03-03T14:49:48;5.73;;;4.50;;
13230;SDS011;6681;53.254;10.398;2023-03-03T14:54:41;7.90;;;4.83;;
13230;SDS011;6681;53.254;10.398;2023-03-03T14:57:19;5.97;;;3.60;;
13230;SDS011;6681;53.254;10.398;2023-03-03T15:05:24;7.63;;;4.57;;
13230;SDS011;6681;53.254;10.398;2023-03-03T15:07:56;10.07;;;3.37;;
13230;SDS011;6681;53.254;10.398;2023-03-03T15:10:29;7.10;;;3.03;;
13230;SDS011;6681;53.254;10.398;2023-03-03T15:13:07;5.57;;;3.23;;
13230;SDS011;6681;53.254;10.398;2023-03-03T15:18:27;9.80;;;3.37;;
13230;SDS011;6681;53.254;10.398;2023-03-03T15:26:32;4.33;;;2.63;;
13230;SDS011;6681;53.254;10.398;2023-03-03T15:29:04;3.63;;;3.07;;
13230;SDS011;6681;53.254;10.398;2023-03-03T15:31:58;2.30;;;2.10;;
13230;SDS011;6681;53.254;10.398;2023-03-03T15:39:49;4.33;;;2.63;;
13230;SDS011;6681;53.254;10.398;2023-03-03T15:42:46;7.60;;;2.63;;
13230;SDS011;6681;53.254;10.398;2023-03-03T15:45:28;2.63;;;2.40;;
13230;SDS011;6681;53.254;10.398;2023-03-03T16:01:34;3.33;;;2.83;;
13230;SDS011;6681;53.254;10.398;2023-03-03T16:04:03;3.90;;;3.20;;
13230;SDS011;6681;53.254;10.398;2023-03-03T16:06:44;8.27;;;3.33;;
13230;SDS011;6681;53.254;10.398;2023-03-03T16:12:08;4.30;;;3.83;;
13230;SDS011;6681;53.254;10.398;2023-03-03T16:17:33;5.33;;;3.50;;
13230;SDS011;6681;53.254;10.398;2023-03-03T16:20:34;4.80;;;2.43;;
13230;SDS011;6681;53.254;10.398;2023-03-03T16:32:04;3.90;;;2.53;;
13230;SDS011;6681;53.254;10.398;2023-03-03T16:34:54;2.40;;;2.13;;
13230;SDS011;6681;53.254;10.398;2023-03-03T16:42:26;3.60;;;1.70;;
13230;SDS011;6681;53.254;10.398;2023-03-03T16:45:05;2.03;;;1.83;;
13230;SDS011;6681;53.254;10.398;2023-03-03T16:50:26;2.67;;;1.60;;
13230;SDS011;6681;53.254;10.398;2023-03-03T16:58:39;2.33;;;1.63;;
13230;SDS011;6681;53.254;10.398;2023-03-03T17:09:28;3.37;;;2.10;;
13230;SDS011;6681;53.254;10.398;2023-03-03T17:28:47;3.70;;;2.80;;
13230;SDS011;6681;53.254;10.398;2023-03-03T17:46:35;6.57;;;3.30;;
13230;SDS011;6681;53.254;10.398;2023-03-03T17:57:58;9.83;;;5.10;;
13230;SDS011;6681;53.254;10.398;2023-03-03T18:01:06;7.40;;;4.03;;
13230;SDS011;6681;53.254;10.398;2023-03-03T18:04:06;5.47;;;4.97;;
13230;SDS011;6681;53.254;10.398;2023-03-03T18:09:22;7.23;;;4.33;;
13230;SDS011;6681;53.254;10.398;2023-03-03T18:22:48;5.07;;;3.23;;
13230;SDS011;6681;53.254;10.398;2023-03-03T18:25:16;8.90;;;2.83;;
13230;SDS011;6681;53.254;10.398;2023-03-03T18:31:13;9.57;;;3.20;;
13230;SDS011;6681;53.254;10.398;2023-03-03T18:33:31;4.60;;;4.10;;
13230;SDS011;6681;53.254;10.398;2023-03-03T18:36:07;5.33;;;3.20;;
13230;SDS011;6681;53.254;10.398;2023-03-03T18:39:03;8.23;;;3.47;;
13230;SDS011;6681;53.254;10.398;2023-03-03T18:41:31;8.20;;;3.40;;
13230;SDS011;6681;53.254;10.398;2023-03-03T18:44:24;7.67;;;3.17;;
13230;SDS011;6681;53.254;10.398;2023-03-03T18:46:53;12.60;;;3.50;;
13230;SDS011;6681;53.254;10.398;2023-03-03T18:49:46;3.33;;;2.80;;
13230;SDS011;6681;53.254;10.398;2023-03-03T18:55:23;8.43;;;3.20;;
13230;SDS011;6681;53.254;10.398;2023-03-03T18:58:50;14.40;;;3.30;;
13230;SDS011;6681;53.254;10.398;2023-03-03T19:00:46;9.93;;;2.80;;
13230;SDS011;6681;53.254;10.398;2023-03-03T19:03:23;11.57;;;3.57;;
13230;SDS011;6681;53.254;10.398;2023-03-03T19:05:49;11.37;;;4.40;;
13230;SDS011;6681;53.254;10.398;2023-03-03T19:11:29;10.90;;;2.60;;
13230;SDS011;6681;53.254;10.398;2023-03-03T19:14:12;11.20;;;3.40;;
13230;SDS011;6681;53.254;10.398;2023-03-03T19:16:53;17.57;;;5.87;;
13230;SDS011;6681;53.254;10.398;2023-03-03T19:19:21;14.50;;;4.40;;
13230;SDS011;6681;53.254;10.398;2023-03-03T19:27:42;14.77;;;3.83;;
13230;SDS011;6681;53.254;10.398;2023-03-03T19:33:06;15.93;;;4.43;;
13230;SDS011;6681;53.254;10.398;2023-03-03T19:36:13;10.50;;;3.70;;
13230;SDS011;6681;53.254;10.398;2023-03-03T19:41:59;11.83;;;3.80;;
13230;SDS011;6681;53.254;10.398;2023-03-03T19:44:43;12.60;;;3.77;;
13230;SDS011;6681;53.254;10.398;2023-03-03T19:47:36;11.87;;;4.37;;
13230;SDS011;6681;53.254;10.398;2023-03-03T19:50:38;9.13;;;4.07;;
13230;SDS011;6681;53.254;10.398;2023-03-03T20:07:54;12.07;;;4.00;;
13230;SDS011;6681;53.254;10.398;2023-03-03T20:16:20;12.07;;;3.63;;
13230;SDS011;6681;53.254;10.398;2023-03-03T20:21:51;14.47;;;4.43;;
13230;SDS011;6681;53.254;10.398;2023-03-03T20:24:32;9.67;;;4.30;;
13230;SDS011;6681;53.254;10.398;2023-03-03T20:32:52;16.87;;;4.30;;
13230;SDS011;6681;53.254;10.398;2023-03-03T20:46:43;14.73;;;4.50;;
13230;SDS011;6681;53.254;10.398;2023-03-03T20:52:32;15.87;;;4.60;;
13230;SDS011;6681;53.254;10.398;2023-03-03T20:57:44;17.27;;;6.30;;
13230;SDS011;6681;53.254;10.398;2023-03-03T21:00:40;15.90;;;4.57;;
13230;SDS011;6681;53.254;10.398;2023-03-03T21:11:19;21.83;;;7.13;;
13230;SDS011;6681;53.254;10.398;2023-03-03T21:13:48;21.23;;;4.87;;
13230;SDS011;6681;53.254;10.398;2023-03-03T21:18:57;16.97;;;4.80;;
13230;SDS011;6681;53.254;10.398;2023-03-03T21:21:27;14.20;;;3.73;;
13230;SDS011;6681;53.254;10.398;2023-03-03T21:23:56;17.07;;;4.87;;
13230;SDS011;6681;53.254;10.398;2023-03-03T21:29:17;16.67;;;5.30;;
13230;SDS011;6681;53.254;10.398;2023-03-03T21:34:27;29.30;;;5.13;;
13230;SDS011;6681;53.254;10.398;2023-03-03T21:36:58;22.43;;;6.43;;
13230;SDS011;6681;53.254;10.398;2023-03-03T21:39:41;15.57;;;4.47;;
13230;SDS011;6681;53.254;10.398;2023-03-03T21:42:13;21.23;;;4.50;;
13230;SDS011;6681;53.254;10.398;2023-03-03T21:44:52;13.20;;;4.03;;
13230;SDS011;6681;53.254;10.398;2023-03-03T21:47:19;20.13;;;5.53;;
13230;SDS011;6681;53.254;10.398;2023-03-03T21:49:51;19.57;;;5.93;;